Impacts TAF Board
For situational awareness. Not to be used for flight planning purposes.
IDs:

KFLL - Ft Lauderdale-Hollyw, FL, US

Issued at 0543 UTC 24 Jan 2019
Updated at 0605 UTC 24 Jan 2019
Potential Impact None Slight Moderate High
Time<<25/07Z 25/08Z 25/09Z 25/10Z 25/11Z 25/12Z 25/13Z 25/14Z 25/15Z 25/16Z 25/17Z 25/18Z 25/19Z
Type PRVL PRVL PRVL PRVL PRVL
VIS >6 >6 >6 >6 >6
CIG 45 45 45 45 45
Cover BKN BKN BKN BKN BKN
FltCat VFR VFR VFR VFR VFR
WX -- -- -- -- --
WDir 290 290 290 290 290
WSpd 5 5 5 5 5
WGst -- -- -- -- --
Raw TAF
KFLL 240543Z 2406/2512 16015G25KT P6SM BKN027
  FM240900 16020KT P6SM VCSH SCT020 BKN030
  FM241800 21015KT P6SM SHRA BKN035 OVC050
  FM242200 23010KT P6SM SCT035 BKN050
  FM250300 29005KT P6SM SCT030 BKN045


METAR Board
Radar Display
Forecast Discussion
For situational awareness. Not to be used for flight planning purposes.